首页
METAR-TAF:

METAR-TAF

机场 :

Grand Rapids/Itasca County Airport (Gordon Newstrom Field)

Grand Rapids, 明尼蘇達州, 美国

纬度: 47-13N, 经度: 093-31W, 海拔: 413米

当前天气观测

该预报发布于1小时和2分钟前的19:56 UTC
风速11节,风向西,有时为15节阵风
温度 22°C
湿度 41%
气压 1013 hPa
能見度: 16.1公里
天空无云

METAR: KGPZ 231956Z AUTO 26011G15KT 10SM CLR 22/08 A2992 RMK AO2 SLP132 T02170083

时间: 15:58 (20:58 UTC)


TAF: 丢失

超过4000个机场的气象观测和天气预报(METAR&TAF报告)。

可查询的气象台以黄色和红色小点在地图上表示。

将鼠标移到小点上方,可查看气象台名称。

然后点击查看天气观测和预报。

如需切换地图:点击带黑十字的绿色按钮放大地图;点击带横线的绿色按钮缩小地图;或者点击绿色箭头查看邻近地区的地图。


METAR-TAF: